sensor_id;sensor_type;location;lat;lon;timestamp;P1;durP1;ratioP1;P2;durP2;ratioP2
938;SDS011;456;53.584;9.968;2022-07-06T00:01:03;1.87;;;1.70;;
938;SDS011;456;53.584;9.968;2022-07-06T00:03:29;3.43;;;1.70;;
938;SDS011;456;53.584;9.968;2022-07-06T00:05:54;2.27;;;1.87;;
938;SDS011;456;53.584;9.968;2022-07-06T00:08:21;1.73;;;1.60;;
938;SDS011;456;53.584;9.968;2022-07-06T00:10:46;2.13;;;1.73;;
938;SDS011;456;53.584;9.968;2022-07-06T00:13:12;1.90;;;1.60;;
938;SDS011;456;53.584;9.968;2022-07-06T00:15:37;2.30;;;2.10;;
938;SDS011;456;53.584;9.968;2022-07-06T00:18:03;2.87;;;1.50;;
938;SDS011;456;53.584;9.968;2022-07-06T00:20:28;1.90;;;1.80;;
938;SDS011;456;53.584;9.968;2022-07-06T00:22:54;1.83;;;1.60;;
938;SDS011;456;53.584;9.968;2022-07-06T00:25:20;2.17;;;1.60;;
938;SDS011;456;53.584;9.968;2022-07-06T00:27:45;1.70;;;1.50;;
938;SDS011;456;53.584;9.968;2022-07-06T00:30:11;2.70;;;1.70;;
938;SDS011;456;53.584;9.968;2022-07-06T00:32:37;2.13;;;1.93;;
938;SDS011;456;53.584;9.968;2022-07-06T00:35:02;1.57;;;1.47;;
938;SDS011;456;53.584;9.968;2022-07-06T00:37:29;1.50;;;1.40;;
938;SDS011;456;53.584;9.968;2022-07-06T00:39:54;2.00;;;1.80;;
938;SDS011;456;53.584;9.968;2022-07-06T00:42:20;2.23;;;1.57;;
938;SDS011;456;53.584;9.968;2022-07-06T00:44:46;1.90;;;1.70;;
938;SDS011;456;53.584;9.968;2022-07-06T00:47:11;3.20;;;1.70;;
938;SDS011;456;53.584;9.968;2022-07-06T00:49:37;1.87;;;1.70;;
938;SDS011;456;53.584;9.968;2022-07-06T00:52:21;2.70;;;1.50;;
938;SDS011;456;53.584;9.968;2022-07-06T00:54:47;1.93;;;1.77;;
938;SDS011;456;53.584;9.968;2022-07-06T00:57:12;1.60;;;1.50;;
938;SDS011;456;53.584;9.968;2022-07-06T00:59:38;2.60;;;1.83;;
938;SDS011;456;53.584;9.968;2022-07-06T01:02:04;1.70;;;1.60;;
938;SDS011;456;53.584;9.968;2022-07-06T01:04:29;2.87;;;1.80;;
938;SDS011;456;53.584;9.968;2022-07-06T01:06:55;1.60;;;1.50;;
938;SDS011;456;53.584;9.968;2022-07-06T01:09:22;1.53;;;1.43;;
938;SDS011;456;53.584;9.968;2022-07-06T01:11:48;2.03;;;1.90;;
938;SDS011;456;53.584;9.968;2022-07-06T01:14:13;1.67;;;1.47;;
938;SDS011;456;53.584;9.968;2022-07-06T01:16:40;1.60;;;1.50;;
938;SDS011;456;53.584;9.968;2022-07-06T01:19:05;2.10;;;1.90;;
938;SDS011;456;53.584;9.968;2022-07-06T01:21:31;1.63;;;1.37;;
938;SDS011;456;53.584;9.968;2022-07-06T01:23:56;3.10;;;1.80;;
938;SDS011;456;53.584;9.968;2022-07-06T01:26:22;1.50;;;1.40;;
938;SDS011;456;53.584;9.968;2022-07-06T01:28:49;2.27;;;2.07;;
938;SDS011;456;53.584;9.968;2022-07-06T01:31:22;2.03;;;1.60;;
938;SDS011;456;53.584;9.968;2022-07-06T01:33:50;2.43;;;1.63;;
938;SDS011;456;53.584;9.968;2022-07-06T01:36:17;1.93;;;1.73;;
938;SDS011;456;53.584;9.968;2022-07-06T01:38:46;3.40;;;2.00;;
938;SDS011;456;53.584;9.968;2022-07-06T01:41:12;1.57;;;1.47;;
938;SDS011;456;53.584;9.968;2022-07-06T01:43:38;1.73;;;1.63;;
938;SDS011;456;53.584;9.968;2022-07-06T01:46:04;1.90;;;1.80;;
938;SDS011;456;53.584;9.968;2022-07-06T01:48:30;2.80;;;1.90;;
938;SDS011;456;53.584;9.968;2022-07-06T01:50:56;2.00;;;1.70;;
938;SDS011;456;53.584;9.968;2022-07-06T01:53:21;2.53;;;1.77;;
938;SDS011;456;53.584;9.968;2022-07-06T01:55:47;1.90;;;1.80;;
938;SDS011;456;53.584;9.968;2022-07-06T01:58:12;2.37;;;1.90;;
938;SDS011;456;53.584;9.968;2022-07-06T02:00:38;2.03;;;1.83;;
938;SDS011;456;53.584;9.968;2022-07-06T02:03:04;2.90;;;1.63;;
938;SDS011;456;53.584;9.968;2022-07-06T02:05:29;2.60;;;1.60;;
938;SDS011;456;53.584;9.968;2022-07-06T02:07:55;2.33;;;1.83;;
938;SDS011;456;53.584;9.968;2022-07-06T02:10:20;2.67;;;1.43;;
938;SDS011;456;53.584;9.968;2022-07-06T02:12:46;3.70;;;1.60;;
938;SDS011;456;53.584;9.968;2022-07-06T02:15:12;1.90;;;1.80;;
938;SDS011;456;53.584;9.968;2022-07-06T02:17:38;3.27;;;1.93;;
938;SDS011;456;53.584;9.968;2022-07-06T02:20:04;2.10;;;1.73;;
938;SDS011;456;53.584;9.968;2022-07-06T02:22:30;1.73;;;1.63;;
938;SDS011;456;53.584;9.968;2022-07-06T02:24:56;2.13;;;1.77;;
938;SDS011;456;53.584;9.968;2022-07-06T02:27:22;2.63;;;1.80;;
938;SDS011;456;53.584;9.968;2022-07-06T02:29:47;2.83;;;1.77;;
938;SDS011;456;53.584;9.968;2022-07-06T02:32:13;1.97;;;1.60;;
938;SDS011;456;53.584;9.968;2022-07-06T02:34:39;1.47;;;1.37;;
938;SDS011;456;53.584;9.968;2022-07-06T02:37:04;2.20;;;2.00;;
938;SDS011;456;53.584;9.968;2022-07-06T02:39:30;1.57;;;1.47;;
938;SDS011;456;53.584;9.968;2022-07-06T02:41:55;2.00;;;1.77;;
938;SDS011;456;53.584;9.968;2022-07-06T02:44:21;2.53;;;1.50;;
938;SDS011;456;53.584;9.968;2022-07-06T02:46:46;2.13;;;1.60;;
938;SDS011;456;53.584;9.968;2022-07-06T02:49:12;2.43;;;1.67;;
938;SDS011;456;53.584;9.968;2022-07-06T02:51:38;2.50;;;1.60;;
938;SDS011;456;53.584;9.968;2022-07-06T02:54:03;3.63;;;1.80;;
938;SDS011;456;53.584;9.968;2022-07-06T02:56:29;2.60;;;1.73;;
938;SDS011;456;53.584;9.968;2022-07-06T02:58:55;1.50;;;1.40;;
938;SDS011;456;53.584;9.968;2022-07-06T03:01:20;2.20;;;1.60;;
938;SDS011;456;53.584;9.968;2022-07-06T03:03:46;2.37;;;1.50;;
938;SDS011;456;53.584;9.968;2022-07-06T03:06:11;2.30;;;1.60;;
938;SDS011;456;53.584;9.968;2022-07-06T03:08:37;3.00;;;2.23;;
938;SDS011;456;53.584;9.968;2022-07-06T03:11:03;3.47;;;2.13;;
938;SDS011;456;53.584;9.968;2022-07-06T03:13:28;3.20;;;1.97;;
938;SDS011;456;53.584;9.968;2022-07-06T03:15:54;1.83;;;1.73;;
938;SDS011;456;53.584;9.968;2022-07-06T03:18:21;2.13;;;1.40;;
938;SDS011;456;53.584;9.968;2022-07-06T03:20:47;1.93;;;1.70;;
938;SDS011;456;53.584;9.968;2022-07-06T03:23:13;2.20;;;1.50;;
938;SDS011;456;53.584;9.968;2022-07-06T03:25:38;1.50;;;1.40;;
938;SDS011;456;53.584;9.968;2022-07-06T03:28:04;1.67;;;1.57;;
938;SDS011;456;53.584;9.968;2022-07-06T03:30:29;3.40;;;2.17;;
938;SDS011;456;53.584;9.968;2022-07-06T03:32:55;2.70;;;1.93;;
938;SDS011;456;53.584;9.968;2022-07-06T03:35:21;2.30;;;2.10;;
938;SDS011;456;53.584;9.968;2022-07-06T03:37:46;1.67;;;1.57;;
938;SDS011;456;53.584;9.968;2022-07-06T03:40:12;2.43;;;1.57;;
938;SDS011;456;53.584;9.968;2022-07-06T03:42:38;2.97;;;1.87;;
938;SDS011;456;53.584;9.968;2022-07-06T03:45:04;1.87;;;1.63;;
938;SDS011;456;53.584;9.968;2022-07-06T03:47:30;1.80;;;1.50;;
938;SDS011;456;53.584;9.968;2022-07-06T03:49:56;2.03;;;1.80;;
938;SDS011;456;53.584;9.968;2022-07-06T03:52:21;2.17;;;1.97;;
938;SDS011;456;53.584;9.968;2022-07-06T03:54:47;1.83;;;1.50;;
938;SDS011;456;53.584;9.968;2022-07-06T03:57:13;2.13;;;1.50;;
938;SDS011;456;53.584;9.968;2022-07-06T03:59:39;2.17;;;1.50;;
938;SDS011;456;53.584;9.968;2022-07-06T04:02:04;2.63;;;1.73;;
938;SDS011;456;53.584;9.968;2022-07-06T04:04:30;2.73;;;1.63;;
938;SDS011;456;53.584;9.968;2022-07-06T04:06:56;1.60;;;1.50;;
938;SDS011;456;53.584;9.968;2022-07-06T04:09:22;2.50;;;1.70;;
938;SDS011;456;53.584;9.968;2022-07-06T04:11:48;2.60;;;1.80;;
938;SDS011;456;53.584;9.968;2022-07-06T04:14:13;1.83;;;1.63;;
938;SDS011;456;53.584;9.968;2022-07-06T04:16:39;2.77;;;1.87;;
938;SDS011;456;53.584;9.968;2022-07-06T04:19:04;3.97;;;2.17;;
938;SDS011;456;53.584;9.968;2022-07-06T04:21:30;2.70;;;1.97;;
938;SDS011;456;53.584;9.968;2022-07-06T04:23:56;4.40;;;2.07;;
938;SDS011;456;53.584;9.968;2022-07-06T04:26:21;3.17;;;2.20;;
938;SDS011;456;53.584;9.968;2022-07-06T04:28:47;2.03;;;1.73;;
938;SDS011;456;53.584;9.968;2022-07-06T04:31:12;2.00;;;1.90;;
938;SDS011;456;53.584;9.968;2022-07-06T04:33:40;1.80;;;1.70;;
938;SDS011;456;53.584;9.968;2022-07-06T04:36:07;1.80;;;1.70;;
938;SDS011;456;53.584;9.968;2022-07-06T04:38:34;2.63;;;2.13;;
938;SDS011;456;53.584;9.968;2022-07-06T04:40:59;2.17;;;1.73;;
938;SDS011;456;53.584;9.968;2022-07-06T04:43:25;2.10;;;1.90;;
938;SDS011;456;53.584;9.968;2022-07-06T04:45:50;1.67;;;1.57;;
938;SDS011;456;53.584;9.968;2022-07-06T04:48:16;2.13;;;1.60;;
938;SDS011;456;53.584;9.968;2022-07-06T04:50:42;2.83;;;2.27;;
938;SDS011;456;53.584;9.968;2022-07-06T04:53:07;2.90;;;1.70;;
938;SDS011;456;53.584;9.968;2022-07-06T04:55:33;2.23;;;2.03;;
938;SDS011;456;53.584;9.968;2022-07-06T04:57:59;2.70;;;2.03;;
938;SDS011;456;53.584;9.968;2022-07-06T05:00:24;2.03;;;1.60;;
938;SDS011;456;53.584;9.968;2022-07-06T05:02:50;1.70;;;1.50;;
938;SDS011;456;53.584;9.968;2022-07-06T05:05:16;2.50;;;1.80;;
938;SDS011;456;53.584;9.968;2022-07-06T05:07:41;2.13;;;2.03;;
938;SDS011;456;53.584;9.968;2022-07-06T05:10:10;2.47;;;1.80;;
938;SDS011;456;53.584;9.968;2022-07-06T05:12:37;2.53;;;1.70;;
938;SDS011;456;53.584;9.968;2022-07-06T05:15:03;1.87;;;1.60;;
938;SDS011;456;53.584;9.968;2022-07-06T05:17:29;2.47;;;1.77;;
938;SDS011;456;53.584;9.968;2022-07-06T05:19:54;1.93;;;1.70;;
938;SDS011;456;53.584;9.968;2022-07-06T05:22:20;2.40;;;1.60;;
938;SDS011;456;53.584;9.968;2022-07-06T05:24:45;1.80;;;1.53;;
938;SDS011;456;53.584;9.968;2022-07-06T05:27:11;2.93;;;2.00;;
938;SDS011;456;53.584;9.968;2022-07-06T05:29:37;2.60;;;2.00;;
938;SDS011;456;53.584;9.968;2022-07-06T05:32:02;2.23;;;1.50;;
938;SDS011;456;53.584;9.968;2022-07-06T05:34:28;3.13;;;1.57;;
938;SDS011;456;53.584;9.968;2022-07-06T05:36:54;1.80;;;1.67;;
938;SDS011;456;53.584;9.968;2022-07-06T05:39:20;2.00;;;1.40;;
938;SDS011;456;53.584;9.968;2022-07-06T05:41:47;2.20;;;1.60;;
938;SDS011;456;53.584;9.968;2022-07-06T05:44:13;2.27;;;1.70;;
938;SDS011;456;53.584;9.968;2022-07-06T05:46:39;2.33;;;1.43;;
938;SDS011;456;53.584;9.968;2022-07-06T05:49:05;1.93;;;1.40;;
938;SDS011;456;53.584;9.968;2022-07-06T05:51:49;1.53;;;1.10;;
938;SDS011;456;53.584;9.968;2022-07-06T05:54:15;1.87;;;1.37;;
938;SDS011;456;53.584;9.968;2022-07-06T05:56:41;1.63;;;1.40;;
938;SDS011;456;53.584;9.968;2022-07-06T05:59:07;1.67;;;1.10;;
938;SDS011;456;53.584;9.968;2022-07-06T06:01:33;1.40;;;1.17;;
938;SDS011;456;53.584;9.968;2022-07-06T06:03:58;1.77;;;1.23;;
938;SDS011;456;53.584;9.968;2022-07-06T06:06:25;3.40;;;1.20;;
938;SDS011;456;53.584;9.968;2022-07-06T06:08:50;1.50;;;1.40;;
938;SDS011;456;53.584;9.968;2022-07-06T06:11:16;1.70;;;1.33;;
938;SDS011;456;53.584;9.968;2022-07-06T06:13:42;1.30;;;1.20;;
938;SDS011;456;53.584;9.968;2022-07-06T06:16:08;1.50;;;0.93;;
938;SDS011;456;53.584;9.968;2022-07-06T06:18:34;2.10;;;1.27;;
938;SDS011;456;53.584;9.968;2022-07-06T06:20:59;1.90;;;1.27;;
938;SDS011;456;53.584;9.968;2022-07-06T06:23:25;2.00;;;1.30;;
938;SDS011;456;53.584;9.968;2022-07-06T06:25:51;1.00;;;0.93;;
938;SDS011;456;53.584;9.968;2022-07-06T06:28:16;1.77;;;1.23;;
938;SDS011;456;53.584;9.968;2022-07-06T06:30:42;1.77;;;1.00;;
938;SDS011;456;53.584;9.968;2022-07-06T06:33:09;1.50;;;1.00;;
938;SDS011;456;53.584;9.968;2022-07-06T06:35:36;1.37;;;1.00;;
938;SDS011;456;53.584;9.968;2022-07-06T06:38:02;1.33;;;1.00;;
938;SDS011;456;53.584;9.968;2022-07-06T06:40:27;1.53;;;0.90;;
938;SDS011;456;53.584;9.968;2022-07-06T06:42:53;1.63;;;1.20;;
938;SDS011;456;53.584;9.968;2022-07-06T06:45:19;2.20;;;1.13;;
938;SDS011;456;53.584;9.968;2022-07-06T06:47:44;1.43;;;1.20;;
938;SDS011;456;53.584;9.968;2022-07-06T06:50:10;2.33;;;1.17;;
938;SDS011;456;53.584;9.968;2022-07-06T06:52:35;3.23;;;1.50;;
938;SDS011;456;53.584;9.968;2022-07-06T06:55:01;2.30;;;1.33;;
938;SDS011;456;53.584;9.968;2022-07-06T06:57:27;1.40;;;1.30;;
938;SDS011;456;53.584;9.968;2022-07-06T06:59:53;1.40;;;1.30;;
938;SDS011;456;53.584;9.968;2022-07-06T07:02:19;1.63;;;1.00;;
938;SDS011;456;53.584;9.968;2022-07-06T07:04:45;1.97;;;1.30;;
938;SDS011;456;53.584;9.968;2022-07-06T07:07:11;1.20;;;1.10;;
938;SDS011;456;53.584;9.968;2022-07-06T07:09:36;1.67;;;1.07;;
938;SDS011;456;53.584;9.968;2022-07-06T07:12:02;2.17;;;1.00;;
938;SDS011;456;53.584;9.968;2022-07-06T07:14:28;1.83;;;0.93;;
938;SDS011;456;53.584;9.968;2022-07-06T07:16:53;1.70;;;1.50;;
938;SDS011;456;53.584;9.968;2022-07-06T07:19:19;1.83;;;1.07;;
938;SDS011;456;53.584;9.968;2022-07-06T07:21:45;2.03;;;1.33;;
938;SDS011;456;53.584;9.968;2022-07-06T07:24:10;1.60;;;1.20;;
938;SDS011;456;53.584;9.968;2022-07-06T07:26:36;1.63;;;1.50;;
938;SDS011;456;53.584;9.968;2022-07-06T07:29:02;3.23;;;1.80;;
938;SDS011;456;53.584;9.968;2022-07-06T07:31:28;1.40;;;1.20;;
938;SDS011;456;53.584;9.968;2022-07-06T07:33:53;2.13;;;1.10;;
938;SDS011;456;53.584;9.968;2022-07-06T07:36:22;1.23;;;0.80;;
938;SDS011;456;53.584;9.968;2022-07-06T07:38:48;2.80;;;1.37;;
938;SDS011;456;53.584;9.968;2022-07-06T07:41:14;2.27;;;1.33;;
938;SDS011;456;53.584;9.968;2022-07-06T07:43:41;1.67;;;1.57;;
938;SDS011;456;53.584;9.968;2022-07-06T07:46:07;1.83;;;1.10;;
938;SDS011;456;53.584;9.968;2022-07-06T07:48:33;3.30;;;1.23;;
938;SDS011;456;53.584;9.968;2022-07-06T07:50:58;2.37;;;1.37;;
938;SDS011;456;53.584;9.968;2022-07-06T07:53:24;1.30;;;1.00;;
938;SDS011;456;53.584;9.968;2022-07-06T07:55:50;1.50;;;1.03;;
938;SDS011;456;53.584;9.968;2022-07-06T07:58:15;3.17;;;1.30;;
938;SDS011;456;53.584;9.968;2022-07-06T08:00:41;2.90;;;1.10;;
938;SDS011;456;53.584;9.968;2022-07-06T08:03:06;1.70;;;1.10;;
938;SDS011;456;53.584;9.968;2022-07-06T08:05:32;1.30;;;1.20;;
938;SDS011;456;53.584;9.968;2022-07-06T08:07:58;2.60;;;0.97;;
938;SDS011;456;53.584;9.968;2022-07-06T08:10:23;1.97;;;1.30;;
938;SDS011;456;53.584;9.968;2022-07-06T08:12:49;1.90;;;1.17;;
938;SDS011;456;53.584;9.968;2022-07-06T08:15:17;1.90;;;1.13;;
938;SDS011;456;53.584;9.968;2022-07-06T08:17:43;1.67;;;1.07;;
938;SDS011;456;53.584;9.968;2022-07-06T08:20:09;1.47;;;1.30;;
938;SDS011;456;53.584;9.968;2022-07-06T08:22:35;1.70;;;1.00;;
938;SDS011;456;53.584;9.968;2022-07-06T08:25:01;1.50;;;1.00;;
938;SDS011;456;53.584;9.968;2022-07-06T08:27:27;1.90;;;1.10;;
938;SDS011;456;53.584;9.968;2022-07-06T08:29:52;1.40;;;1.00;;
938;SDS011;456;53.584;9.968;2022-07-06T08:32:18;1.10;;;1.00;;
938;SDS011;456;53.584;9.968;2022-07-06T08:34:44;1.53;;;0.90;;
938;SDS011;456;53.584;9.968;2022-07-06T08:37:11;1.30;;;0.90;;
938;SDS011;456;53.584;9.968;2022-07-06T08:39:36;1.20;;;1.00;;
938;SDS011;456;53.584;9.968;2022-07-06T08:42:02;1.87;;;1.00;;
938;SDS011;456;53.584;9.968;2022-07-06T08:44:28;2.63;;;1.17;;
938;SDS011;456;53.584;9.968;2022-07-06T08:46:54;1.40;;;0.90;;
938;SDS011;456;53.584;9.968;2022-07-06T08:49:22;1.27;;;0.90;;
938;SDS011;456;53.584;9.968;2022-07-06T08:51:50;1.30;;;0.80;;
938;SDS011;456;53.584;9.968;2022-07-06T08:54:16;1.30;;;0.87;;
938;SDS011;456;53.584;9.968;2022-07-06T08:56:43;1.37;;;0.90;;
938;SDS011;456;53.584;9.968;2022-07-06T08:59:09;1.00;;;0.90;;
938;SDS011;456;53.584;9.968;2022-07-06T09:01:36;1.73;;;1.10;;
938;SDS011;456;53.584;9.968;2022-07-06T09:04:04;1.00;;;0.80;;
938;SDS011;456;53.584;9.968;2022-07-06T09:06:31;1.77;;;0.63;;
938;SDS011;456;53.584;9.968;2022-07-06T09:08:59;2.00;;;0.90;;
938;SDS011;456;53.584;9.968;2022-07-06T09:11:30;1.10;;;0.70;;
938;SDS011;456;53.584;9.968;2022-07-06T09:13:55;1.10;;;0.80;;
938;SDS011;456;53.584;9.968;2022-07-06T09:16:25;0.70;;;0.70;;
938;SDS011;456;53.584;9.968;2022-07-06T09:18:53;0.70;;;0.60;;
938;SDS011;456;53.584;9.968;2022-07-06T09:21:23;1.60;;;0.93;;
938;SDS011;456;53.584;9.968;2022-07-06T09:23:57;1.20;;;0.80;;
938;SDS011;456;53.584;9.968;2022-07-06T09:26:25;1.73;;;0.90;;
938;SDS011;456;53.584;9.968;2022-07-06T09:28:51;1.33;;;1.10;;
938;SDS011;456;53.584;9.968;2022-07-06T09:31:17;0.90;;;0.70;;
938;SDS011;456;53.584;9.968;2022-07-06T09:33:53;1.57;;;0.83;;
938;SDS011;456;53.584;9.968;2022-07-06T09:39:20;1.90;;;0.83;;
938;SDS011;456;53.584;9.968;2022-07-06T09:41:51;1.30;;;1.20;;
938;SDS011;456;53.584;9.968;2022-07-06T09:44:21;0.83;;;0.70;;
938;SDS011;456;53.584;9.968;2022-07-06T09:46:51;1.93;;;0.80;;
938;SDS011;456;53.584;9.968;2022-07-06T09:49:21;1.70;;;0.87;;
938;SDS011;456;53.584;9.968;2022-07-06T09:51:47;0.83;;;0.80;;
938;SDS011;456;53.584;9.968;2022-07-06T09:54:15;0.80;;;0.70;;
938;SDS011;456;53.584;9.968;2022-07-06T09:56:42;1.00;;;0.80;;
938;SDS011;456;53.584;9.968;2022-07-06T09:59:13;1.57;;;0.90;;
938;SDS011;456;53.584;9.968;2022-07-06T10:01:40;0.80;;;0.70;;
938;SDS011;456;53.584;9.968;2022-07-06T10:04:07;1.23;;;0.73;;
938;SDS011;456;53.584;9.968;2022-07-06T10:06:34;0.87;;;0.80;;
938;SDS011;456;53.584;9.968;2022-07-06T10:09:00;0.97;;;0.70;;
938;SDS011;456;53.584;9.968;2022-07-06T10:11:27;0.73;;;0.73;;
938;SDS011;456;53.584;9.968;2022-07-06T10:13:55;1.67;;;0.80;;
938;SDS011;456;53.584;9.968;2022-07-06T10:16:22;1.30;;;0.63;;
938;SDS011;456;53.584;9.968;2022-07-06T10:18:49;1.50;;;1.03;;
938;SDS011;456;53.584;9.968;2022-07-06T10:21:18;0.90;;;0.80;;
938;SDS011;456;53.584;9.968;2022-07-06T10:23:45;0.93;;;0.60;;
938;SDS011;456;53.584;9.968;2022-07-06T10:26:11;0.83;;;0.60;;
938;SDS011;456;53.584;9.968;2022-07-06T10:28:39;1.73;;;1.03;;
938;SDS011;456;53.584;9.968;2022-07-06T10:31:06;1.23;;;0.83;;
938;SDS011;456;53.584;9.968;2022-07-06T10:33:32;1.10;;;0.90;;
938;SDS011;456;53.584;9.968;2022-07-06T10:35:59;1.30;;;0.60;;
938;SDS011;456;53.584;9.968;2022-07-06T10:38:34;0.90;;;0.80;;
938;SDS011;456;53.584;9.968;2022-07-06T10:41:04;1.10;;;0.93;;
938;SDS011;456;53.584;9.968;2022-07-06T10:46:04;1.13;;;0.90;;
938;SDS011;456;53.584;9.968;2022-07-06T10:48:34;1.77;;;1.00;;
938;SDS011;456;53.584;9.968;2022-07-06T10:51:01;2.07;;;0.90;;
938;SDS011;456;53.584;9.968;2022-07-06T10:53:36;1.40;;;0.70;;
938;SDS011;456;53.584;9.968;2022-07-06T10:56:09;0.93;;;0.80;;
938;SDS011;456;53.584;9.968;2022-07-06T11:01:18;1.50;;;0.93;;
938;SDS011;456;53.584;9.968;2022-07-06T11:03:49;0.83;;;0.83;;
938;SDS011;456;53.584;9.968;2022-07-06T11:09:00;1.60;;;0.60;;
938;SDS011;456;53.584;9.968;2022-07-06T11:14:01;0.93;;;0.70;;
938;SDS011;456;53.584;9.968;2022-07-06T11:16:29;1.73;;;0.70;;
938;SDS011;456;53.584;9.968;2022-07-06T11:21:34;1.07;;;0.70;;
938;SDS011;456;53.584;9.968;2022-07-06T11:24:01;1.53;;;0.70;;
938;SDS011;456;53.584;9.968;2022-07-06T11:26:28;1.40;;;0.73;;
938;SDS011;456;53.584;9.968;2022-07-06T11:28:55;2.40;;;1.00;;
938;SDS011;456;53.584;9.968;2022-07-06T11:31:25;1.63;;;0.83;;
938;SDS011;456;53.584;9.968;2022-07-06T11:33:51;0.90;;;0.77;;
938;SDS011;456;53.584;9.968;2022-07-06T11:36:21;1.30;;;0.83;;
938;SDS011;456;53.584;9.968;2022-07-06T11:38:48;1.47;;;0.73;;
938;SDS011;456;53.584;9.968;2022-07-06T11:41:16;1.10;;;0.80;;
938;SDS011;456;53.584;9.968;2022-07-06T11:43:44;1.63;;;0.90;;
938;SDS011;456;53.584;9.968;2022-07-06T11:49:07;1.00;;;0.77;;
938;SDS011;456;53.584;9.968;2022-07-06T11:51:35;0.77;;;0.77;;
938;SDS011;456;53.584;9.968;2022-07-06T11:54:10;1.33;;;1.00;;
938;SDS011;456;53.584;9.968;2022-07-06T11:59:20;0.60;;;0.60;;
938;SDS011;456;53.584;9.968;2022-07-06T12:01:46;1.93;;;0.80;;
938;SDS011;456;53.584;9.968;2022-07-06T12:04:12;1.00;;;0.80;;
938;SDS011;456;53.584;9.968;2022-07-06T12:06:38;0.83;;;0.70;;
938;SDS011;456;53.584;9.968;2022-07-06T12:09:03;1.63;;;0.77;;
938;SDS011;456;53.584;9.968;2022-07-06T12:11:32;1.13;;;0.73;;
938;SDS011;456;53.584;9.968;2022-07-06T12:14:03;1.30;;;0.90;;
938;SDS011;456;53.584;9.968;2022-07-06T12:16:45;1.37;;;0.87;;
938;SDS011;456;53.584;9.968;2022-07-06T12:19:12;1.57;;;0.93;;
938;SDS011;456;53.584;9.968;2022-07-06T12:21:42;1.30;;;1.20;;
938;SDS011;456;53.584;9.968;2022-07-06T12:24:16;1.00;;;0.70;;
938;SDS011;456;53.584;9.968;2022-07-06T12:26:46;1.83;;;0.80;;
938;SDS011;456;53.584;9.968;2022-07-06T12:29:13;2.37;;;1.00;;
938;SDS011;456;53.584;9.968;2022-07-06T12:31:41;1.10;;;0.80;;
938;SDS011;456;53.584;9.968;2022-07-06T12:34:19;1.20;;;0.70;;
938;SDS011;456;53.584;9.968;2022-07-06T12:36:47;1.20;;;0.80;;
938;SDS011;456;53.584;9.968;2022-07-06T12:39:17;0.70;;;0.67;;
938;SDS011;456;53.584;9.968;2022-07-06T12:44:15;0.97;;;0.63;;
938;SDS011;456;53.584;9.968;2022-07-06T12:46:43;1.27;;;0.80;;
938;SDS011;456;53.584;9.968;2022-07-06T12:51:52;1.57;;;0.80;;
938;SDS011;456;53.584;9.968;2022-07-06T12:54:26;0.90;;;0.70;;
938;SDS011;456;53.584;9.968;2022-07-06T12:56:57;0.80;;;0.70;;
938;SDS011;456;53.584;9.968;2022-07-06T12:59:47;1.10;;;0.70;;
938;SDS011;456;53.584;9.968;2022-07-06T13:02:23;0.73;;;0.60;;
938;SDS011;456;53.584;9.968;2022-07-06T13:04:56;1.30;;;0.70;;
938;SDS011;456;53.584;9.968;2022-07-06T13:07:27;1.17;;;1.00;;
938;SDS011;456;53.584;9.968;2022-07-06T13:09:54;0.80;;;0.80;;
938;SDS011;456;53.584;9.968;2022-07-06T13:12:20;1.00;;;0.80;;
938;SDS011;456;53.584;9.968;2022-07-06T13:14:46;0.90;;;0.80;;
938;SDS011;456;53.584;9.968;2022-07-06T13:17:12;1.10;;;0.80;;
938;SDS011;456;53.584;9.968;2022-07-06T13:19:38;0.70;;;0.60;;
938;SDS011;456;53.584;9.968;2022-07-06T13:22:03;1.80;;;0.80;;
938;SDS011;456;53.584;9.968;2022-07-06T13:24:29;0.90;;;0.70;;
938;SDS011;456;53.584;9.968;2022-07-06T13:26:55;1.23;;;0.60;;
938;SDS011;456;53.584;9.968;2022-07-06T13:29:22;1.07;;;0.60;;
938;SDS011;456;53.584;9.968;2022-07-06T13:31:48;0.87;;;0.77;;
938;SDS011;456;53.584;9.968;2022-07-06T13:34:14;1.00;;;0.83;;
938;SDS011;456;53.584;9.968;2022-07-06T13:36:39;1.00;;;0.70;;
938;SDS011;456;53.584;9.968;2022-07-06T13:39:05;0.93;;;0.83;;
938;SDS011;456;53.584;9.968;2022-07-06T13:41:32;0.80;;;0.80;;
938;SDS011;456;53.584;9.968;2022-07-06T13:43:58;2.30;;;0.80;;
938;SDS011;456;53.584;9.968;2022-07-06T13:46:25;1.03;;;0.63;;
938;SDS011;456;53.584;9.968;2022-07-06T13:48:52;1.87;;;0.80;;
938;SDS011;456;53.584;9.968;2022-07-06T13:51:18;1.30;;;0.70;;
938;SDS011;456;53.584;9.968;2022-07-06T13:53:43;0.90;;;0.60;;
938;SDS011;456;53.584;9.968;2022-07-06T13:56:09;0.80;;;0.80;;
938;SDS011;456;53.584;9.968;2022-07-06T13:58:35;1.17;;;0.87;;
938;SDS011;456;53.584;9.968;2022-07-06T14:01:01;0.80;;;0.80;;
938;SDS011;456;53.584;9.968;2022-07-06T14:03:27;0.90;;;0.80;;
938;SDS011;456;53.584;9.968;2022-07-06T14:05:55;0.80;;;0.70;;
938;SDS011;456;53.584;9.968;2022-07-06T14:08:21;0.90;;;0.70;;
938;SDS011;456;53.584;9.968;2022-07-06T14:10:47;0.90;;;0.70;;
938;SDS011;456;53.584;9.968;2022-07-06T14:13:13;1.47;;;1.07;;
938;SDS011;456;53.584;9.968;2022-07-06T14:15:38;1.40;;;0.83;;
938;SDS011;456;53.584;9.968;2022-07-06T14:18:04;3.70;;;0.70;;
938;SDS011;456;53.584;9.968;2022-07-06T14:20:29;2.10;;;0.80;;
938;SDS011;456;53.584;9.968;2022-07-06T14:22:55;0.80;;;0.50;;
938;SDS011;456;53.584;9.968;2022-07-06T14:25:21;1.10;;;0.60;;
938;SDS011;456;53.584;9.968;2022-07-06T14:27:46;1.53;;;0.77;;
938;SDS011;456;53.584;9.968;2022-07-06T14:30:12;0.87;;;0.70;;
938;SDS011;456;53.584;9.968;2022-07-06T14:32:38;1.23;;;0.80;;
938;SDS011;456;53.584;9.968;2022-07-06T14:35:03;1.13;;;0.70;;
938;SDS011;456;53.584;9.968;2022-07-06T14:37:29;1.97;;;0.83;;
938;SDS011;456;53.584;9.968;2022-07-06T14:39:55;1.00;;;0.70;;
938;SDS011;456;53.584;9.968;2022-07-06T14:42:21;1.33;;;0.90;;
938;SDS011;456;53.584;9.968;2022-07-06T14:44:46;0.80;;;0.70;;
938;SDS011;456;53.584;9.968;2022-07-06T14:47:12;0.83;;;0.63;;
938;SDS011;456;53.584;9.968;2022-07-06T14:49:37;1.77;;;0.70;;
938;SDS011;456;53.584;9.968;2022-07-06T14:52:03;1.77;;;0.90;;
938;SDS011;456;53.584;9.968;2022-07-06T14:54:29;1.07;;;0.77;;
938;SDS011;456;53.584;9.968;2022-07-06T14:56:55;1.40;;;0.60;;
938;SDS011;456;53.584;9.968;2022-07-06T14:59:21;1.00;;;0.77;;
938;SDS011;456;53.584;9.968;2022-07-06T15:01:46;1.43;;;0.70;;
938;SDS011;456;53.584;9.968;2022-07-06T15:04:12;1.53;;;1.00;;
938;SDS011;456;53.584;9.968;2022-07-06T15:06:38;1.20;;;0.70;;
938;SDS011;456;53.584;9.968;2022-07-06T15:09:04;0.90;;;0.70;;
938;SDS011;456;53.584;9.968;2022-07-06T15:11:32;1.30;;;0.83;;
938;SDS011;456;53.584;9.968;2022-07-06T15:13:58;2.80;;;0.90;;
938;SDS011;456;53.584;9.968;2022-07-06T15:16:23;0.60;;;0.50;;
938;SDS011;456;53.584;9.968;2022-07-06T15:18:49;1.00;;;0.80;;
938;SDS011;456;53.584;9.968;2022-07-06T15:21:15;1.30;;;0.90;;
938;SDS011;456;53.584;9.968;2022-07-06T15:23:41;2.00;;;0.70;;
938;SDS011;456;53.584;9.968;2022-07-06T15:26:07;0.70;;;0.60;;
938;SDS011;456;53.584;9.968;2022-07-06T15:28:34;1.30;;;0.70;;
938;SDS011;456;53.584;9.968;2022-07-06T15:30:59;0.70;;;0.60;;
938;SDS011;456;53.584;9.968;2022-07-06T15:33:25;1.10;;;0.70;;
938;SDS011;456;53.584;9.968;2022-07-06T15:35:51;1.70;;;0.87;;
938;SDS011;456;53.584;9.968;2022-07-06T15:38:16;0.90;;;0.60;;
938;SDS011;456;53.584;9.968;2022-07-06T15:40:42;1.27;;;0.70;;
938;SDS011;456;53.584;9.968;2022-07-06T15:43:16;1.40;;;1.00;;
938;SDS011;456;53.584;9.968;2022-07-06T15:45:42;1.43;;;0.70;;
938;SDS011;456;53.584;9.968;2022-07-06T15:48:08;1.27;;;1.00;;
938;SDS011;456;53.584;9.968;2022-07-06T15:50:34;0.80;;;0.60;;
938;SDS011;456;53.584;9.968;2022-07-06T15:53:00;0.73;;;0.70;;
938;SDS011;456;53.584;9.968;2022-07-06T15:55:26;1.43;;;1.00;;
938;SDS011;456;53.584;9.968;2022-07-06T15:57:53;2.40;;;0.73;;
938;SDS011;456;53.584;9.968;2022-07-06T16:00:19;0.80;;;0.70;;
938;SDS011;456;53.584;9.968;2022-07-06T16:02:44;0.80;;;0.70;;
938;SDS011;456;53.584;9.968;2022-07-06T16:05:10;0.80;;;0.70;;
938;SDS011;456;53.584;9.968;2022-07-06T16:07:36;1.00;;;0.60;;